createdAt,value
2019-06-11T00:00:52.849Z,0
2019-06-11T00:02:25.292Z,0
2019-06-11T00:02:52.590Z,0
2019-06-11T00:03:48.391Z,0
2019-06-11T00:04:52.564Z,0
2019-06-11T00:05:48.806Z,0
2019-06-11T00:06:50.485Z,0
2019-06-11T00:07:48.505Z,0
2019-06-11T00:08:50.315Z,0
2019-06-11T00:09:53.572Z,0
2019-06-11T00:10:52.586Z,0
2019-06-11T00:11:48.389Z,0
2019-06-11T00:12:52.950Z,0
2019-06-11T00:13:52.530Z,0
2019-06-11T00:14:52.797Z,0
2019-06-11T00:15:52.337Z,0
2019-06-11T00:16:48.153Z,0
2019-06-11T00:17:52.311Z,0
2019-06-11T00:18:50.503Z,0
2019-06-11T00:19:48.813Z,0
2019-06-11T00:20:52.296Z,0
2019-06-11T00:21:52.338Z,0
2019-06-11T00:22:52.905Z,0
2019-06-11T00:23:48.506Z,0
2019-06-11T00:24:50.154Z,0
2019-06-11T00:25:48.935Z,0
2019-06-11T00:26:50.291Z,0
2019-06-11T00:27:50.296Z,0
2019-06-11T00:28:49.958Z,0
2019-06-11T00:29:48.322Z,0
2019-06-11T00:30:52.447Z,0
2019-06-11T00:31:53.096Z,0
2019-06-11T00:32:53.376Z,0
2019-06-11T00:33:48.702Z,0
2019-06-11T00:34:52.813Z,0
2019-06-11T00:35:48.837Z,0
2019-06-11T00:36:50.030Z,0
2019-06-11T00:37:48.668Z,0
2019-06-11T00:38:52.936Z,0
2019-06-11T00:39:48.725Z,0
2019-06-11T00:40:48.502Z,0
2019-06-11T00:41:52.347Z,0
2019-06-11T00:42:52.317Z,0
2019-06-11T00:43:53.207Z,0
2019-06-11T00:44:48.351Z,0
2019-06-11T00:45:49.375Z,0
2019-06-11T00:46:48.544Z,0
2019-06-11T00:47:49.250Z,0
2019-06-11T00:48:48.616Z,0
2019-06-11T00:49:52.667Z,0
2019-06-11T00:50:53.308Z,0
2019-06-11T00:51:48.331Z,0
2019-06-11T00:52:50.020Z,0
2019-06-11T00:53:48.628Z,0
2019-06-11T00:54:50.438Z,0
2019-06-11T00:55:52.873Z,0
2019-06-11T00:56:52.112Z,0
2019-06-11T00:57:50.095Z,0
2019-06-11T00:58:48.359Z,0
2019-06-11T00:59:52.304Z,0
2019-06-11T01:00:50.294Z,0
2019-06-11T01:01:48.969Z,0
2019-06-11T01:02:55.284Z,0
2019-06-11T01:03:49.948Z,0
2019-06-11T01:04:52.788Z,0
2019-06-11T01:05:49.028Z,0
2019-06-11T01:06:52.652Z,0
2019-06-11T01:07:52.331Z,0
2019-06-11T01:08:52.908Z,0
2019-06-11T01:09:48.602Z,0
2019-06-11T01:10:52.311Z,0
2019-06-11T01:11:52.866Z,0
2019-06-11T01:12:52.606Z,0
2019-06-11T01:13:52.826Z,0
2019-06-11T01:14:48.411Z,0
2019-06-11T01:15:52.324Z,0
2019-06-11T01:16:52.805Z,0
2019-06-11T01:17:50.148Z,0
2019-06-11T01:18:52.610Z,0
2019-06-11T01:19:52.121Z,0
2019-06-11T01:20:52.808Z,0
2019-06-11T01:21:52.252Z,0
2019-06-11T01:22:50.035Z,0
2019-06-11T01:23:52.335Z,0
2019-06-11T01:24:52.887Z,0
2019-06-11T01:25:52.819Z,0
2019-06-11T01:26:52.026Z,0
2019-06-11T01:27:49.826Z,0
2019-06-11T01:28:52.406Z,0
2019-06-11T01:29:52.105Z,0
2019-06-11T01:30:48.617Z,0
2019-06-11T01:31:53.072Z,0
2019-06-11T01:33:23.802Z,0
2019-06-11T01:33:52.259Z,0
2019-06-11T01:34:50.121Z,0
2019-06-11T01:35:48.697Z,0
2019-06-11T01:36:52.342Z,0
2019-06-11T01:37:52.862Z,0
2019-06-11T01:38:52.415Z,0
2019-06-11T01:39:50.477Z,0
2019-06-11T01:40:50.546Z,0
2019-06-11T01:41:50.237Z,0
2019-06-11T01:42:48.211Z,0
2019-06-11T01:43:48.905Z,0
2019-06-11T01:44:51.993Z,0
2019-06-11T01:45:52.676Z,0
2019-06-11T01:46:52.635Z,0
2019-06-11T01:49:57.600Z,0
2019-06-11T01:50:17.465Z,0
2019-06-11T01:51:13.750Z,0
2019-06-11T01:52:15.229Z,0
2019-06-11T01:53:17.359Z,0
2019-06-11T01:54:15.621Z,0
2019-06-11T01:55:16.495Z,0
2019-06-11T01:56:16.787Z,0
2019-06-11T01:57:14.750Z,0
2019-06-11T01:58:14.318Z,0
2019-06-11T01:59:15.488Z,0
2019-06-11T02:00:32.618Z,0
2019-06-11T02:01:26.077Z,0
2019-06-11T02:02:17.820Z,0
2019-06-11T02:03:47.647Z,0
2019-06-11T02:04:18.529Z,0
2019-06-11T02:05:14.410Z,0
2019-06-11T02:06:18.975Z,0
2019-06-11T02:07:12.504Z,0
2019-06-11T02:08:16.796Z,0
2019-06-11T02:09:16.803Z,0
2019-06-11T02:10:14.694Z,0
2019-06-11T02:11:13.141Z,0
2019-06-11T02:12:14.322Z,0
2019-06-11T02:13:17.394Z,0
2019-06-11T02:14:16.832Z,0
2019-06-11T02:15:13.757Z,0
2019-06-11T02:16:24.274Z,0
2019-06-11T02:17:22.401Z,0
2019-06-11T02:18:13.309Z,0
2019-06-11T02:19:14.926Z,0
2019-06-11T02:20:17.007Z,0
2019-06-11T02:21:15.880Z,0
2019-06-11T02:22:16.506Z,0
2019-06-11T02:23:13.855Z,0
2019-06-11T02:24:14.922Z,0
2019-06-11T02:25:15.950Z,0
2019-06-11T02:26:14.605Z,0
2019-06-11T02:27:11.479Z,0
2019-06-11T02:28:13.400Z,0
2019-06-11T02:29:11.694Z,0
2019-06-11T02:30:59.796Z,0
2019-06-11T02:31:39.803Z,0
2019-06-11T02:32:36.893Z,0
2019-06-11T02:34:25.109Z,0
2019-06-11T02:35:59.093Z,0
2019-06-11T02:36:41.731Z,0
2019-06-11T02:37:36.439Z,0
2019-06-11T02:38:35.566Z,0
2019-06-11T02:39:34.425Z,0
2019-06-11T02:40:35.484Z,0
2019-06-11T02:41:35.267Z,0
2019-06-11T02:42:34.736Z,0
2019-06-11T02:43:35.096Z,0
2019-06-11T02:44:36.324Z,0
2019-06-11T02:45:36.458Z,0
2019-06-11T02:46:36.990Z,0
2019-06-11T02:47:37.083Z,0
2019-06-11T02:48:40.139Z,0
2019-06-11T02:49:35.069Z,0
2019-06-11T02:50:36.752Z,0
2019-06-11T02:51:35.536Z,0
2019-06-11T02:52:35.643Z,0
2019-06-11T02:53:35.837Z,0
2019-06-11T02:54:37.248Z,0
2019-06-11T02:55:36.099Z,0
2019-06-11T02:56:36.468Z,0
2019-06-11T02:57:37.942Z,0
2019-06-11T02:58:37.233Z,0
2019-06-11T02:59:36.934Z,0
2019-06-11T03:00:56.185Z,0
2019-06-11T03:01:42.219Z,0
2019-06-11T03:02:37.955Z,0
2019-06-11T03:03:36.779Z,0
2019-06-11T03:05:23.916Z,0
2019-06-11T03:05:54.631Z,0
2019-06-11T03:06:53.776Z,0
2019-06-11T03:07:51.928Z,0
2019-06-11T03:08:54.432Z,0
2019-06-11T03:09:52.070Z,0
2019-06-11T03:10:55.362Z,0
2019-06-11T03:11:53.167Z,0
2019-06-11T03:12:51.244Z,0
2019-06-11T03:13:54.027Z,4
2019-06-11T03:14:51.835Z,0
2019-06-11T03:15:51.298Z,0
2019-06-11T03:16:55.108Z,4
2019-06-11T03:17:51.693Z,0
2019-06-11T03:18:54.100Z,0
2019-06-11T03:19:51.928Z,0
2019-06-11T03:20:54.132Z,4
2019-06-11T03:21:52.145Z,4
2019-06-11T03:22:54.356Z,4
2019-06-11T03:23:54.133Z,4
2019-06-11T03:24:51.681Z,0
2019-06-11T03:25:51.140Z,4
2019-06-11T03:26:51.926Z,4
2019-06-11T03:27:52.335Z,0
2019-06-11T03:28:52.578Z,4
2019-06-11T03:29:52.373Z,4
2019-06-11T03:34:14.205Z,4
2019-06-11T03:38:22.913Z,4
2019-06-11T03:40:05.688Z,4
2019-06-11T03:40:42.530Z,8
2019-06-11T03:41:41.357Z,8
2019-06-11T03:42:41.571Z,8
2019-06-11T03:43:36.645Z,8
2019-06-11T03:44:41.746Z,8
2019-06-11T03:45:41.320Z,8
2019-06-11T03:46:41.789Z,8
2019-06-11T03:47:38.256Z,8
2019-06-11T03:48:37.411Z,8
2019-06-11T03:49:42.303Z,8
2019-06-11T03:50:36.904Z,8
2019-06-11T03:51:41.949Z,8
2019-06-11T03:52:36.225Z,8
2019-06-11T03:53:42.010Z,8
2019-06-11T03:54:41.012Z,12
2019-06-11T03:55:34.596Z,12
2019-06-11T03:56:41.993Z,12
2019-06-11T03:57:34.318Z,12
2019-06-11T03:58:43.246Z,12
2019-06-11T03:59:35.274Z,12
2019-06-11T04:01:01.483Z,12
2019-06-11T04:01:42.880Z,16
2019-06-11T04:02:41.755Z,16
2019-06-11T04:03:37.913Z,16
2019-06-11T04:04:35.858Z,16
2019-06-11T04:05:41.799Z,16
2019-06-11T04:07:38.670Z,12
2019-06-11T04:08:07.658Z,16
2019-06-11T04:09:03.894Z,16
2019-06-11T04:10:04.679Z,16
2019-06-11T04:11:05.075Z,16
2019-06-11T04:12:04.676Z,16
2019-06-11T04:13:53.030Z,20
2019-06-11T04:14:41.121Z,20
2019-06-11T04:15:47.637Z,24
2019-06-11T04:17:48.181Z,20
2019-06-11T04:18:51.132Z,20
2019-06-11T04:20:02.246Z,20
2019-06-11T04:21:34.284Z,20
2019-06-11T04:22:35.933Z,28
2019-06-11T04:23:07.935Z,28
2019-06-11T04:24:05.086Z,32
2019-06-11T04:24:54.004Z,32
2019-06-11T04:25:54.678Z,32
2019-06-11T04:26:56.969Z,28
2019-06-11T04:28:05.056Z,28
2019-06-11T04:28:55.260Z,28
2019-06-11T04:29:54.771Z,32
2019-06-11T04:31:03.134Z,36
2019-06-11T04:31:56.683Z,40
2019-06-11T04:32:54.326Z,44
2019-06-11T04:33:57.400Z,44
2019-06-11T04:34:54.886Z,44
2019-06-11T04:36:02.272Z,52
2019-06-11T04:38:08.530Z,60
2019-06-11T04:38:55.967Z,64
2019-06-11T04:39:45.021Z,64
2019-06-11T04:40:44.307Z,60
2019-06-11T04:41:43.658Z,60
2019-06-11T04:42:44.766Z,56
2019-06-11T04:43:44.749Z,56
2019-06-11T04:44:43.988Z,60
2019-06-11T04:45:42.676Z,60
2019-06-11T04:46:44.649Z,60
2019-06-11T04:47:55.602Z,60
2019-06-11T04:48:47.239Z,60
2019-06-11T04:49:46.964Z,60
2019-06-11T04:50:44.282Z,56
2019-06-11T04:51:44.787Z,56
2019-06-11T04:52:42.053Z,52
2019-06-11T04:53:44.540Z,56
2019-06-11T04:54:44.579Z,56
2019-06-11T04:55:44.425Z,56
2019-06-11T04:56:47.496Z,60
2019-06-11T04:57:44.033Z,64
2019-06-11T04:59:04.899Z,72
2019-06-11T04:59:44.824Z,80
2019-06-11T05:05:14.837Z,72
2019-06-11T05:05:51.223Z,68
2019-06-11T05:06:46.480Z,64
2019-06-11T05:08:19.116Z,68
2019-06-11T05:08:52.667Z,72
2019-06-11T05:09:51.544Z,80
2019-06-11T05:10:55.827Z,88
2019-06-11T05:11:53.983Z,92
2019-06-11T05:17:06.743Z,160
2019-06-11T05:17:36.479Z,164
2019-06-11T05:18:37.245Z,172
2019-06-11T05:19:38.164Z,176
2019-06-11T05:20:32.307Z,180
2019-06-11T05:21:37.477Z,180
2019-06-11T05:22:36.230Z,176
2019-06-11T05:23:29.541Z,180
2019-06-11T05:24:26.718Z,184
2019-06-11T05:25:31.697Z,184
2019-06-11T05:26:37.677Z,196
2019-06-11T05:27:26.455Z,200
2019-06-11T05:28:25.197Z,208
2019-06-11T05:29:26.862Z,208
2019-06-11T05:30:45.327Z,212
2019-06-11T05:31:26.860Z,216
2019-06-11T05:32:26.171Z,220
2019-06-11T05:33:23.728Z,216
2019-06-11T05:34:25.127Z,212
2019-06-11T05:35:28.026Z,204
2019-06-11T05:36:23.790Z,208
2019-06-11T05:37:23.921Z,208
2019-06-11T05:38:55.884Z,200
2019-06-11T05:39:25.485Z,200
2019-06-11T05:40:25.484Z,196
2019-06-11T05:41:27.885Z,192
2019-06-11T05:42:26.867Z,188
2019-06-11T05:43:27.063Z,192
2019-06-11T05:44:27.005Z,200
2019-06-11T05:45:26.322Z,204
2019-06-11T05:46:27.607Z,204
2019-06-11T05:47:22.384Z,204
2019-06-11T05:48:25.115Z,204
2019-06-11T05:49:25.649Z,212
2019-06-11T05:50:22.662Z,212
2019-06-11T05:51:23.090Z,208
2019-06-11T05:52:20.654Z,208
2019-06-11T05:53:20.918Z,204
2019-06-11T05:54:20.817Z,212
2019-06-11T05:55:20.909Z,220
2019-06-11T05:56:23.626Z,236
2019-06-11T05:57:21.130Z,256
2019-06-11T05:58:21.111Z,288
2019-06-11T05:59:21.562Z,324
2019-06-11T06:00:20.879Z,356
2019-06-11T06:02:05.151Z,484
2019-06-11T06:02:21.722Z,528
2019-06-11T06:03:21.250Z,392
2019-06-11T06:04:23.814Z,384
2019-06-11T06:05:21.201Z,520
2019-06-11T06:06:23.942Z,444
2019-06-11T06:07:23.608Z,704
2019-06-11T06:08:35.192Z,480
2019-06-11T06:09:23.737Z,724
2019-06-11T06:10:20.780Z,724
2019-06-11T06:11:21.295Z,716
2019-06-11T06:12:21.309Z,600
2019-06-11T06:13:23.651Z,652
2019-06-11T06:14:20.814Z,652
2019-06-11T06:15:21.941Z,768
2019-06-11T06:16:24.585Z,700
2019-06-11T06:17:24.002Z,596
2019-06-11T06:18:21.101Z,576
2019-06-11T06:19:20.764Z,1032
2019-06-11T06:20:23.682Z,1040
2019-06-11T06:21:20.965Z,740
2019-06-11T06:22:22.606Z,836
2019-06-11T06:23:20.415Z,764
2019-06-11T06:24:50.483Z,920
2019-06-11T06:25:22.848Z,1188
2019-06-11T06:26:26.135Z,952
2019-06-11T06:27:21.112Z,924
2019-06-11T06:28:21.627Z,1144
2019-06-11T06:29:21.257Z,628
2019-06-11T06:30:24.936Z,524
2019-06-11T06:31:22.608Z,788
2019-06-11T06:32:20.880Z,516
2019-06-11T06:33:21.601Z,508
2019-06-11T06:34:20.860Z,648
2019-06-11T06:35:20.697Z,532
2019-06-11T06:36:21.082Z,452
2019-06-11T06:37:22.819Z,460
2019-06-11T06:38:54.693Z,2160
2019-06-11T06:39:20.588Z,456
2019-06-11T06:40:20.887Z,544
2019-06-11T06:41:21.005Z,536
2019-06-11T06:42:20.548Z,472
2019-06-11T06:43:23.085Z,1536
2019-06-11T06:44:20.907Z,744
2019-06-11T06:45:23.418Z,1128
2019-06-11T06:46:21.013Z,2948
2019-06-11T06:50:51.171Z,1072
2019-06-11T06:51:50.878Z,1872
2019-06-11T06:52:51.234Z,944
2019-06-11T06:53:50.623Z,772
2019-06-11T06:54:56.503Z,1388
2019-06-11T06:55:50.107Z,1300
2019-06-11T06:56:50.842Z,1220
2019-06-11T06:57:50.893Z,3652
2019-06-11T06:58:50.841Z,3736
2019-06-11T06:59:50.995Z,2708
2019-06-11T07:00:49.892Z,2396
2019-06-11T07:01:51.101Z,768
2019-06-11T07:02:51.008Z,656
2019-06-11T07:03:55.110Z,568
2019-06-11T07:04:50.401Z,1556
2019-06-11T07:05:58.074Z,2796
2019-06-11T07:06:50.373Z,3068
2019-06-11T07:07:56.769Z,3096
2019-06-11T07:09:15.148Z,3116
2019-06-11T07:09:52.274Z,3208
2019-06-11T07:10:53.334Z,3112
2019-06-11T07:11:51.164Z,2948
2019-06-11T07:12:50.598Z,2972
2019-06-11T07:13:51.298Z,3000
2019-06-11T07:14:53.124Z,3008
2019-06-11T07:15:56.526Z,2772
2019-06-11T07:19:04.294Z,1100
2019-06-11T07:19:21.661Z,1260
2019-06-11T07:20:16.038Z,736
2019-06-11T07:21:16.474Z,704
2019-06-11T07:22:16.395Z,672
2019-06-11T07:23:16.873Z,688
2019-06-11T07:24:20.646Z,732
2019-06-11T07:25:16.316Z,676
2019-06-11T07:26:16.651Z,672
2019-06-11T07:27:16.312Z,2232
2019-06-11T07:28:16.377Z,2548
2019-06-11T07:29:21.031Z,2988
2019-06-11T07:30:15.764Z,3008
2019-06-11T07:31:17.403Z,892
2019-06-11T07:33:32.055Z,1208
2019-06-11T07:34:33.730Z,708
2019-06-11T07:35:34.518Z,756
2019-06-11T07:36:34.200Z,760
2019-06-11T07:37:35.152Z,988
2019-06-11T07:38:31.641Z,648
2019-06-11T07:39:44.982Z,624
2019-06-11T07:40:35.450Z,648
2019-06-11T07:41:35.281Z,1904
2019-06-11T07:42:37.230Z,980
2019-06-11T07:43:46.199Z,1044
2019-06-11T07:44:35.638Z,956
2019-06-11T07:45:31.764Z,740
2019-06-11T07:47:06.652Z,928
2019-06-11T07:47:36.660Z,940
2019-06-11T07:48:33.205Z,1092
2019-06-11T07:49:32.189Z,1244
2019-06-11T07:50:34.830Z,1792
2019-06-11T07:51:35.955Z,1728
2019-06-11T07:52:32.241Z,1700
2019-06-11T07:53:32.307Z,1936
2019-06-11T07:54:32.221Z,1732
2019-06-11T07:55:34.263Z,1500
2019-06-11T07:56:35.482Z,2312
2019-06-11T07:57:32.345Z,2016
2019-06-11T07:58:35.945Z,1812
2019-06-11T07:59:36.414Z,1600
2019-06-11T08:00:31.518Z,1380
2019-06-11T08:01:32.423Z,1140
2019-06-11T08:02:31.876Z,1672
2019-06-11T08:03:32.043Z,1416
2019-06-11T08:04:32.067Z,1392
2019-06-11T08:05:32.624Z,1544
2019-06-11T08:06:41.981Z,1728
2019-06-11T08:07:44.614Z,1696
2019-06-11T08:10:59.426Z,1228
2019-06-11T08:11:24.284Z,892
2019-06-11T08:12:25.567Z,1012
2019-06-11T08:13:24.050Z,760
2019-06-11T08:14:26.965Z,692
2019-06-11T08:15:22.806Z,776
2019-06-11T08:16:32.493Z,992
2019-06-11T08:17:24.195Z,804
2019-06-11T08:18:24.881Z,1132
2019-06-11T08:22:13.507Z,1088
2019-06-11T08:23:10.055Z,708
2019-06-11T08:23:57.987Z,652
2019-06-11T08:27:36.167Z,708
2019-06-11T08:28:23.268Z,724
2019-06-11T08:29:16.308Z,664
2019-06-11T08:30:16.455Z,688
2019-06-11T08:31:17.285Z,712
2019-06-11T08:32:15.464Z,796
2019-06-11T08:33:17.396Z,828
2019-06-11T08:34:16.644Z,892
2019-06-11T08:35:16.099Z,996
2019-06-11T08:36:20.472Z,1344
2019-06-11T08:37:16.114Z,1052
2019-06-11T08:38:15.933Z,960
2019-06-11T08:39:15.839Z,892
2019-06-11T08:40:30.126Z,932
2019-06-11T08:41:15.632Z,1128
2019-06-11T08:42:16.969Z,1052
2019-06-11T08:43:15.948Z,1340
2019-06-11T08:44:15.523Z,1408
2019-06-11T08:45:30.819Z,1760
2019-06-11T08:46:15.557Z,1544
2019-06-11T08:47:15.643Z,1760
2019-06-11T08:48:15.489Z,1788
2019-06-11T08:49:16.396Z,1760
2019-06-11T08:50:15.748Z,1860
2019-06-11T08:51:17.035Z,2116
2019-06-11T08:52:16.455Z,1664
2019-06-11T08:53:23.669Z,1628
2019-06-11T08:54:15.997Z,1528
2019-06-11T08:55:16.483Z,1116
2019-06-11T08:56:15.784Z,872
2019-06-11T08:57:16.656Z,812
2019-06-11T08:58:16.869Z,712
2019-06-11T08:59:15.598Z,704
2019-06-11T09:01:08.832Z,736
2019-06-11T09:01:23.062Z,744
2019-06-11T09:02:23.336Z,796
2019-06-11T09:03:23.477Z,888
2019-06-11T09:04:22.928Z,1016
2019-06-11T09:05:23.591Z,896
2019-06-11T09:06:24.817Z,868
2019-06-11T09:07:22.604Z,976
2019-06-11T09:08:23.022Z,936
2019-06-11T09:09:24.126Z,932
2019-06-11T09:10:45.195Z,1032
2019-06-11T09:11:22.935Z,1068
2019-06-11T09:12:24.004Z,1028
2019-06-11T09:13:23.395Z,1272
2019-06-11T09:14:23.865Z,936
2019-06-11T09:15:23.195Z,812
2019-06-11T09:16:23.644Z,772
2019-06-11T09:17:24.509Z,904
2019-06-11T09:18:23.840Z,808
2019-06-11T09:19:23.317Z,796
2019-06-11T09:20:23.592Z,752
2019-06-11T09:21:24.870Z,724
2019-06-11T09:22:23.601Z,744
2019-06-11T09:23:23.176Z,792
2019-06-11T09:24:25.593Z,848
2019-06-11T09:25:22.964Z,872
2019-06-11T09:26:24.496Z,1012
2019-06-11T09:27:23.245Z,1040
2019-06-11T09:28:23.690Z,984
2019-06-11T09:29:23.340Z,1312
2019-06-11T09:30:24.963Z,980
2019-06-11T09:31:24.049Z,872
2019-06-11T09:32:23.500Z,952
2019-06-11T09:33:23.918Z,1336
2019-06-11T09:34:22.932Z,964
2019-06-11T09:35:23.315Z,1032
2019-06-11T09:36:31.085Z,1016
2019-06-11T09:37:23.517Z,948
2019-06-11T09:38:22.876Z,916
2019-06-11T09:39:23.212Z,836
2019-06-11T09:40:23.684Z,856
2019-06-11T09:41:23.534Z,896
2019-06-11T09:42:23.415Z,964
2019-06-11T09:43:25.162Z,1156
2019-06-11T09:44:23.851Z,1180
2019-06-11T09:45:23.658Z,1276
2019-06-11T09:46:23.919Z,1684
2019-06-11T09:47:38.992Z,1216
2019-06-11T09:48:23.429Z,1304
2019-06-11T09:49:23.628Z,1076
2019-06-11T09:50:24.059Z,1004
2019-06-11T09:51:24.174Z,936
2019-06-11T09:56:40.823Z,1264
2019-06-11T09:58:11.642Z,1036
2019-06-11T09:58:56.536Z,1260
2019-06-11T10:00:00.794Z,1244
2019-06-11T10:00:55.629Z,1472
2019-06-11T10:01:59.395Z,1716
2019-06-11T10:03:00.338Z,1904
2019-06-11T10:04:00.441Z,2052
2019-06-11T10:05:04.083Z,2212
2019-06-11T10:06:00.427Z,2160
2019-06-11T10:06:57.648Z,2228
2019-06-11T10:08:00.522Z,2392
2019-06-11T10:09:01.051Z,2388
2019-06-11T10:09:59.915Z,2428
2019-06-11T10:12:05.490Z,2084
2019-06-11T10:12:20.764Z,2176
2019-06-11T10:13:20.252Z,2100
2019-06-11T10:14:20.955Z,1212
2019-06-11T10:15:20.589Z,2188
2019-06-11T10:16:22.464Z,1028
2019-06-11T10:17:23.269Z,932
2019-06-11T10:18:20.081Z,932
2019-06-11T10:19:20.723Z,1020
2019-06-11T10:20:20.813Z,1168
2019-06-11T10:21:20.761Z,1200
2019-06-11T10:22:20.996Z,1132
2019-06-11T10:23:20.804Z,2236
2019-06-11T10:24:19.324Z,1232
2019-06-11T10:25:20.854Z,1488
2019-06-11T10:26:21.545Z,2540
2019-06-11T10:27:20.733Z,2500
2019-06-11T10:28:33.628Z,2524
2019-06-11T10:29:21.075Z,2336
2019-06-11T10:30:21.017Z,1584
2019-06-11T10:31:20.783Z,2036
2019-06-11T10:32:21.224Z,1380
2019-06-11T10:33:20.679Z,1084
2019-06-11T10:34:20.811Z,1112
2019-06-11T10:35:20.177Z,1020
2019-06-11T10:36:33.111Z,1888
2019-06-11T10:37:20.643Z,1904
2019-06-11T10:38:20.121Z,2352
2019-06-11T10:39:21.116Z,2100
2019-06-11T10:40:21.020Z,1708
2019-06-11T10:41:21.030Z,2240
2019-06-11T10:42:20.116Z,1124
2019-06-11T10:43:20.693Z,1036
2019-06-11T10:44:20.210Z,964
2019-06-11T10:45:20.909Z,1144
2019-06-11T10:46:21.631Z,1660
2019-06-11T10:47:23.891Z,1568
2019-06-11T10:48:21.439Z,924
2019-06-11T10:49:20.977Z,784
2019-06-11T10:50:21.428Z,804
2019-06-11T10:51:20.239Z,1260
2019-06-11T10:52:20.015Z,1136
2019-06-11T10:53:21.430Z,932
2019-06-11T10:54:20.404Z,972
2019-06-11T10:55:19.226Z,1160
2019-06-11T10:56:19.416Z,1428
2019-06-11T10:57:21.086Z,1064
2019-06-11T10:58:24.325Z,1148
2019-06-11T10:59:23.951Z,1088
2019-06-11T11:00:23.917Z,996
2019-06-11T11:01:20.676Z,956
2019-06-11T11:02:21.295Z,940
2019-06-11T11:03:20.378Z,936
2019-06-11T11:04:20.371Z,1012
2019-06-11T11:05:20.945Z,932
2019-06-11T11:06:30.822Z,928
2019-06-11T11:07:19.998Z,904
2019-06-11T11:08:20.561Z,864
2019-06-11T11:09:21.569Z,836
2019-06-11T11:10:20.828Z,896
2019-06-11T11:11:24.357Z,888
2019-06-11T11:12:33.565Z,1140
2019-06-11T11:13:20.994Z,1132
2019-06-11T11:14:19.253Z,1004
2019-06-11T11:15:19.261Z,1760
2019-06-11T11:16:23.261Z,1804
2019-06-11T11:17:21.344Z,1652
2019-06-11T11:18:25.856Z,1840
2019-06-11T11:19:20.315Z,1860
2019-06-11T11:20:21.118Z,1348
2019-06-11T11:21:20.475Z,1128
2019-06-11T11:22:21.192Z,1032
2019-06-11T11:23:20.166Z,1028
2019-06-11T11:24:20.738Z,1012
2019-06-11T11:25:20.250Z,948
2019-06-11T11:26:21.090Z,860
2019-06-11T11:27:20.555Z,724
2019-06-11T11:28:33.094Z,648
2019-06-11T11:29:20.512Z,640
2019-06-11T11:30:19.257Z,708
2019-06-11T11:31:21.559Z,740
2019-06-11T11:32:20.666Z,728
2019-06-11T11:33:21.686Z,724
2019-06-11T11:34:20.990Z,784
2019-06-11T11:35:20.942Z,860
2019-06-11T11:36:33.761Z,900
2019-06-11T11:37:23.883Z,968
2019-06-11T11:38:20.912Z,1172
2019-06-11T11:39:20.554Z,1116
2019-06-11T11:40:20.752Z,1068
2019-06-11T11:41:20.802Z,1080
2019-06-11T11:42:41.371Z,1152
2019-06-11T11:43:20.924Z,1200
2019-06-11T11:44:20.552Z,1364
2019-06-11T11:45:19.292Z,1236
2019-06-11T11:46:21.030Z,1092
2019-06-11T11:47:20.425Z,992
2019-06-11T11:48:20.424Z,1144
2019-06-11T11:49:23.606Z,1200
2019-06-11T11:50:20.611Z,1208
2019-06-11T11:51:21.141Z,1208
2019-06-11T11:52:20.364Z,1568
2019-06-11T11:53:20.261Z,1780
2019-06-11T11:54:25.873Z,1320
2019-06-11T11:55:20.430Z,1372
2019-06-11T11:56:22.627Z,1084
2019-06-11T11:57:21.065Z,1504
2019-06-11T11:58:20.763Z,1396
2019-06-11T11:59:20.833Z,1736
2019-06-11T12:00:27.269Z,1544
2019-06-11T12:01:20.869Z,1544
2019-06-11T12:02:21.498Z,1568
2019-06-11T12:03:21.332Z,1568
2019-06-11T12:04:23.995Z,1388
2019-06-11T12:05:20.697Z,1544
2019-06-11T12:06:34.211Z,1572
2019-06-11T12:07:20.368Z,1480
2019-06-11T12:08:21.466Z,1580
2019-06-11T12:09:21.200Z,1632
2019-06-11T12:10:20.564Z,1332
2019-06-11T12:11:27.015Z,1152
2019-06-11T12:12:19.886Z,944
2019-06-11T12:13:20.511Z,880
2019-06-11T12:14:20.624Z,864
2019-06-11T12:15:21.592Z,840
2019-06-11T12:16:45.044Z,856
2019-06-11T12:17:20.089Z,824
2019-06-11T12:18:21.072Z,768
2019-06-11T12:19:27.801Z,720
2019-06-11T12:20:23.281Z,712
2019-06-11T12:21:20.445Z,756
2019-06-11T12:22:20.422Z,828
2019-06-11T12:23:23.217Z,848
2019-06-11T12:24:19.435Z,900
2019-06-11T12:25:43.945Z,1072
2019-06-11T12:26:20.745Z,948
2019-06-11T12:27:20.476Z,1068
2019-06-11T12:28:21.110Z,1184
2019-06-11T12:29:20.569Z,1384
2019-06-11T12:30:23.738Z,1128
2019-06-11T12:31:20.270Z,1452
2019-06-11T12:32:21.099Z,1440
2019-06-11T12:33:20.794Z,900
2019-06-11T12:34:23.553Z,920
2019-06-11T12:35:20.705Z,1368
2019-06-11T12:36:21.066Z,1224
2019-06-11T12:37:20.779Z,1272
2019-06-11T12:38:19.457Z,1228
2019-06-11T12:39:19.867Z,1100
2019-06-11T12:40:19.824Z,1328
2019-06-11T12:41:21.147Z,1052
2019-06-11T12:42:19.418Z,996
2019-06-11T12:43:44.059Z,724
2019-06-11T12:44:20.227Z,696
2019-06-11T12:45:21.297Z,668
2019-06-11T12:46:20.687Z,640
2019-06-11T12:47:20.919Z,664
2019-06-11T12:48:21.254Z,704
2019-06-11T12:49:21.495Z,684
2019-06-11T12:50:23.367Z,676
2019-06-11T12:51:27.398Z,648
2019-06-11T12:52:21.135Z,620
2019-06-11T12:53:21.385Z,616
2019-06-11T12:54:20.834Z,628
2019-06-11T12:55:21.026Z,660
2019-06-11T12:56:20.672Z,732
2019-06-11T12:57:20.385Z,780
2019-06-11T12:58:22.396Z,764
2019-06-11T12:59:20.519Z,728
2019-06-11T13:00:21.121Z,700
2019-06-11T13:01:20.379Z,700
2019-06-11T13:02:21.826Z,776
2019-06-11T13:03:26.091Z,788
2019-06-11T13:04:20.669Z,784
2019-06-11T13:05:21.172Z,792
2019-06-11T13:06:21.488Z,848
2019-06-11T13:07:20.876Z,880
2019-06-11T13:08:24.290Z,1160
2019-06-11T13:09:24.412Z,852
2019-06-11T13:10:19.799Z,792
2019-06-11T13:11:21.509Z,688
2019-06-11T13:12:19.497Z,632
2019-06-11T13:13:40.558Z,604
2019-06-11T13:14:20.339Z,612
2019-06-11T13:15:22.716Z,636
2019-06-11T13:16:21.944Z,724
2019-06-11T13:17:24.063Z,824
2019-06-11T13:18:22.532Z,796
2019-06-11T13:19:21.942Z,844
2019-06-11T13:20:20.898Z,976
2019-06-11T13:21:20.496Z,1028
2019-06-11T13:22:20.201Z,900
2019-06-11T13:23:21.223Z,912
2019-06-11T13:24:20.499Z,1020
2019-06-11T13:25:21.020Z,1392
2019-06-11T13:26:21.153Z,1552
2019-06-11T13:27:20.399Z,1540
2019-06-11T13:28:20.036Z,1364
2019-06-11T13:29:21.291Z,1252
2019-06-11T13:30:20.621Z,1308
2019-06-11T13:31:23.439Z,1192
2019-06-11T13:32:23.606Z,1316
2019-06-11T13:33:20.228Z,1364
2019-06-11T13:34:20.599Z,1312
2019-06-11T13:35:20.735Z,972
2019-06-11T13:36:24.455Z,768
2019-06-11T13:37:22.954Z,676
2019-06-11T13:38:27.036Z,624
2019-06-11T13:39:20.762Z,596
2019-06-11T13:40:23.626Z,544
2019-06-11T13:41:23.777Z,480
2019-06-11T13:42:26.527Z,440
2019-06-11T13:43:20.129Z,412
2019-06-11T13:44:44.721Z,388
2019-06-11T13:45:21.162Z,384
2019-06-11T13:46:20.809Z,396
2019-06-11T13:47:20.379Z,436
2019-06-11T13:48:21.623Z,500
2019-06-11T13:49:21.328Z,564
2019-06-11T13:50:21.526Z,660
2019-06-11T13:51:21.574Z,892
2019-06-11T13:52:21.234Z,1280
2019-06-11T13:53:21.216Z,1580
2019-06-11T13:54:22.997Z,1704
2019-06-11T13:55:22.362Z,1724
2019-06-11T13:56:20.747Z,1732
2019-06-11T13:57:27.541Z,1592
2019-06-11T13:58:24.113Z,1564
2019-06-11T13:59:23.301Z,1280
2019-06-11T14:00:26.977Z,1100
2019-06-11T14:01:20.256Z,900
2019-06-11T14:02:23.527Z,712
2019-06-11T14:03:23.941Z,628
2019-06-11T14:04:22.007Z,612
2019-06-11T14:05:21.893Z,576
2019-06-11T14:06:19.614Z,552
2019-06-11T14:07:19.686Z,524
2019-06-11T14:08:19.543Z,516
2019-06-11T14:09:24.296Z,524
2019-06-11T14:10:20.192Z,564
2019-06-11T14:11:21.300Z,644
2019-06-11T14:12:21.098Z,808
2019-06-11T14:13:21.399Z,1388
2019-06-11T14:14:40.965Z,1464
2019-06-11T14:15:22.127Z,1616
2019-06-11T14:16:21.389Z,1584
2019-06-11T14:17:21.592Z,1540
2019-06-11T14:18:21.689Z,1292
2019-06-11T14:19:20.252Z,1152
2019-06-11T14:20:19.762Z,804
2019-06-11T14:21:22.322Z,420
2019-06-11T14:22:19.596Z,344
2019-06-11T14:23:20.141Z,288
2019-06-11T14:24:21.010Z,324
2019-06-11T14:25:20.370Z,292
2019-06-11T14:26:21.969Z,336
2019-06-11T14:27:20.282Z,352
2019-06-11T14:28:23.971Z,324
2019-06-11T14:29:34.632Z,324
2019-06-11T14:30:30.609Z,332
2019-06-11T14:31:47.135Z,364
2019-06-11T14:32:31.122Z,384
2019-06-11T14:33:20.728Z,416
2019-06-11T14:34:21.285Z,448